SVQ weather

Sevilla Airport
Sevilla, AndalucĂ­a, Spain

Public forecast

Using degrees Celsius for public forecast. Weather courtesy of forecast.io.

Current aviation weather report (METAR) for Sevilla Airport

Retrieved 2019/12/10 21:30 UTC (0 seconds ago):

LEZL 102130Z 00000KT CAVOK 10/08 Q1026 NOSIG

Aviation forecast (TAF) for Sevilla Airport

Retrieved 2019/12/10 21:28 UTC (0 seconds ago):

TAF LEZL 102000Z 1021/1121 VRB03KT CAVOK TX19/1115Z TN05/1107Z